Terminal Aerodrome Forecast
Issued by NWS Upton, NY

Home | Current Version | Previous Version | Text Only | Print | Product List | Glossary On
Versions: 1 2 3 4 5 6 7 8 9 10 11 12 13 14 15 16 17 18 19 20 21 22 23 24 25 26 27
000
FTUS41 KOKX 011800 AAA
TAFJFK
TAF AMD
KJFK 011823Z 0118/0224 22010KT 3/4SM -SN FEW006 OVC010
     FM012000 19008KT 3/4SM -SN OVC008
      TEMPO 0122/0202 1/2SM SN OVC004
     FM020200 VRB05KT 2SM -FZRA OVC008
     FM020600 24006KT 4SM BR OVC010
     FM020900 27008KT P6SM SCT015 BKN025
     FM021200 30013G22KT P6SM SCT025 BKN050
     FM021400 30018G27KT P6SM SCT250=

USA.gov is the U.S. government's official web portal to all federal, state and local government web resources and services.